Flight Track Log - Related Links

Times and Time Zones

All times are in EDT time to prevent confusion due to time zone crossing. See the N447ND flight status page for this flight to view local times or setup timezone preferences in your user account.

Time Position Orientation Groundspeed Altitude Reporting Facility
EDT Latitude Longitude Course Direction KTS MPH feet Rate Location/Type
Wed 09:26:33 AM 28.2500 -80.6833 336° Northwest 107 123 5,100  Level Orlando TRACON
Wed 09:27:33 AM 28.2833 -80.7000 336° Northwest 109 125 5,100  Level Orlando TRACON
Wed 09:28:33 AM 28.3000 -80.7167 319° Northwest 103 119 5,100  Level Orlando TRACON
Wed 09:29:33 AM 28.3333 -80.7167 360° North 101 116 5,100  Level Orlando TRACON
Wed 09:30:33 AM 28.3667 -80.7333 336° Northwest 111 128 5,100  Level Orlando TRACON
Wed 09:31:34 AM 28.4000 -80.7333 360° North 104 120 5,100  Level Orlando TRACON
Wed 09:32:34 AM 28.4167 -80.7500 319° Northwest 110 127 5,100  Level Orlando TRACON
Wed 09:33:40 AM 28.4500 -80.7667 336° Northwest 106 122 5,100  Level Orlando TRACON
Wed 09:34:40 AM 28.4833 -80.7667 360° North 110 127 5,100  Level Orlando TRACON
Wed 09:35:46 AM 28.5167 -80.7833 336° Northwest 104 120 5,100 -50 Level Orlando TRACON
Wed 09:36:41 AM 28.5333 -80.8000 319° Northwest 104 120 5,000  Descending Orlando TRACON
Wed 09:37:41 AM 28.5667 -80.8000 360° North 102 117 5,100 50 Climbing Orlando TRACON
Wed 09:38:41 AM 28.5833 -80.8167 319° Northwest 102 117 5,100  Level Orlando TRACON
Wed 09:39:41 AM 28.6167 -80.8333 336° Northwest 100 115 5,100 -48 Level Orlando TRACON
Wed 09:40:47 AM 28.6500 -80.8333 360° North 101 116 5,000  Descending Orlando TRACON
Wed 09:41:47 AM 28.6667 -80.8500 319° Northwest 101 116 5,100 55 Climbing Orlando TRACON
Wed 09:42:36 AM 28.7000 -80.8500 360° North 100 115 5,100  Level Orlando TRACON
Wed 09:43:42 AM 28.7167 -80.8667 319° Northwest 104 120 5,100  Level Orlando TRACON
Wed 09:44:42 AM 28.7500 -80.8833 336° Northwest 102 117 5,100  Level Orlando TRACON
Wed 09:45:36 AM 28.7667 -80.9000 319° Northwest 100 115 5,100 -29 Level Orlando TRACON
Wed 09:48:07 AM 28.8319 -80.9325 336° Northwest 101 116 5,000  Descending Jacksonville Center
Wed 09:49:02 AM 28.8553 -80.9464 332° Northwest 98 113 5,100 52 Climbing Jacksonville Center
Wed 09:50:03 AM 28.8803 -80.9578 338° Northwest 96 110 5,100  Level Jacksonville Center
Wed 09:51:04 AM 28.9075 -80.9642 348° North 102 117 5,100 49 Level Jacksonville Center
Wed 09:52:05 AM 28.9350 -80.9733 344° North 98 113 5,200 -257 Climbing Jacksonville Center
Wed 09:53:24 AM 28.9747 -80.9797 352° North 112 129 4,500 -516 Descending Jacksonville Center
Wed 09:54:13 AM 28.9931 -80.9650 35° Northeast 110 127 4,100 -218 Descending Jacksonville Center
Wed 09:55:14 AM 29.0200 -80.9478 29° Northeast 108 124 4,100  Level Jacksonville Center
Wed 09:56:14 AM 29.0447 -80.9308 31° Northeast 110 127 4,100 -198 Level Jacksonville Center
Wed 09:57:15 AM 29.0739 -80.9111 31° Northeast 115 132 3,700 -443 Descending Jacksonville Center
Wed 09:58:16 AM 29.1006 -80.8964 26° Northeast 110 127 3,200 -493 Descending Jacksonville Center
Wed 09:59:29 AM 29.1339 -80.8886 12° North 104 120 2,600 -403 Descending Jacksonville Center
Wed 10:00:30 AM 29.1672 -80.8783 15° North 105 121 2,300 -295 Descending Jacksonville Center
Wed 10:01:31 AM 29.1942 -80.8731 10° North 106 122 2,000 -310 Descending Jacksonville Center
Wed 10:02:26 AM 29.2194 -80.8797 347° North 96 110 1,700 -155 Descending Jacksonville Center
Wed 10:03:27 AM 29.2403 -80.8864 344° North 90 104 1,700  Level Jacksonville Center
Wed 10:04:22 AM 29.2386 -80.9103 265° West 84 97 1,700  Level Jacksonville Center
Wed 10:05:23 AM 29.2286 -80.9367 247° West 80 92 1,700  Level Jacksonville Center
Wed 10:06:24 AM 29.2186 -80.9606 244° Southwest 83 96 1,700 -197 Level Jacksonville Center
Wed 10:07:25 AM 29.2106 -80.9869 251° West 94 108 1,300 -425 Descending Jacksonville Center
Wed 10:08:31 AM 29.2006 -81.0133 247° West 86 99 800 -446 Descending Jacksonville Center
Wed 10:09:26 AM 29.1906 -81.0350 242° Southwest 82 94 400 -436 Descending Jacksonville Center
Wed 10:11:00 AM 29.1667 -81.0500 270° West  Level FlightAware Approximate
Wed 10:18:00 AM 29.1799 -81.0581 270° West  Level Estimated
Wed 10:19:00 AM 29.1799 -81.0581 270° West  Level Estimated
Wed 10:20:00 AM 29.1799 -81.0581 270° West  Level Estimated

Login

Don't have an account? Register now (free) for customized features, flight alerts, and more!